Airfield :
LOGIN :

Register | Disclaimer

   EN    FR    IT 

 










Legend :    VFR   Marginal VFR   IFR   Intensive IFR   Very Intensive IFR
Visi :
Ceiling :
>= 8 km
>= 3000ft
5 to 8 km
1000 to 3000 ft
1500m to 5 km
500 to 1000 ft
800 to 1500m
200 to 500 ft
< 800m
< 200 ft
Symbols :   Thunderstorms  Fog  Heavy snow  Heavy precipitations  Wind > 20 kt
SIGMETs :     Misc.  Thunderstorms  Icing  Turbulence  Mountain Waves  Volcanic Ashes






- Airport Elevation : 308 ft
- IATA code : POZ


EPPO - Poznan-Lawica

CURRENT METAR :
  • 280830Z 36004KT 9999 SCT038 13/09 Q1027

EXPIRED METARs :
  • 280800Z 32006KT 310V010 9999 FEW038 13/09 Q1027
  • 280730Z 31008KT 9999 FEW015 12/08 Q1027
  • 280700Z 30006KT CAVOK 12/08 Q1027
  • 280630Z 32006KT CAVOK 11/08 Q1027
  • 280600Z 33005KT 9999 -RA NSC 11/08 Q1027

TAF TAF EPPO
Valid from the 28 at 06:00 until the 29 at 06:00 UTC


280530Z 2806/2906 34010KT 9999 BKN030
TEMPO 2806/2819 SHRA BKN010 BKN020CB



MET'MAP, your aeronautical weather chart ! - Copyright ORBIFLY December 2007 - Disclaimer

ORBIFLY MET'MAP TEAM :

Programming & Development : Alexandra Zaïnal
Concept & original design : Baudouin d'Aumeries
Assistance for programming : Marc-Olivier Méhu
Technical & hardware support : Manuel Goepfert

Contact : metmap@orbifly.com




SOURCES & CREDITS :

   NOAA